Selected Arizona METAR Reports


Metar stations are listed by distance from this station - near to far. The 'official' reporting station for the Greater Phoenix area is KPHX - Phoenix/Sky Harbor.

KDVT - Phoenix/Deer Valley, Arizona, USA
Distance from station: NW 4mi, 7km
Updated: Sun 19 Aug 2018 2353 MST
Clear
Clear
 Wind from calm
Wind: Calm
Temperature: 93°F , 34°C
Dew Point: 61°F , 16°C
Humidity: 34%
Barometer: 29.81 inHg , 1009.5 hPa
Clouds: Clear
Visibility: 10 miles , 16 km
2018/08/20 06:53 KDVT 200653Z AUTO 00000KT 10SM CLR 34/16 A2981 RMK AO2 SLP063 T03440156 404110300
KSDL - Scottsdale, Arizona, USA
Distance from station: ESE 6mi, 9km
Updated: Sun 19 Aug 2018 2353 MST
Clear
Clear
 Wind from calm
Wind: Calm
Temperature: 97°F , 36°C
Dew Point: 59°F , 15°C
Humidity: 28%
Barometer: 29.83 inHg , 1010.2 hPa
Clouds: Clear
Visibility: 10 miles , 16 km
2018/08/20 06:53 KSDL 200653Z AUTO 00000KT 10SM CLR 36/15 A2983 RMK AO2 SLP070 T03560150 404170306
 
KPHX - Phoenix/Sky Harbor, Arizona, USA
Distance from station: S 15mi, 24km
Updated: Sun 19 Aug 2018 2351 MST
Clear
Clear
 Wind from W
Wind: W 8 mph , 13 km/h
Temperature: 99°F , 37°C
Dew Point: 61°F , 16°C
Humidity: 29%
Barometer: 29.78 inHg , 1008.5 hPa
Clouds: Clear
Visibility: 10 miles , 16 km
2018/08/20 06:51 KPHX 200651Z 27007KT 10SM CLR 37/16 A2978 RMK AO2 SLP059 T03720161 404220317
KGEU - Glendale, Arizona, USA
Distance from station: WSW 19mi, 30km
Updated: Sun 19 Aug 2018 1849 MST
NOT Current
Few Clouds
Few Clouds
 Wind from SSW
Wind: SSW 10 mph , 17 km/h
Temperature: 108°F , 42°C
Dew Point: 54°F , 12°C
Humidity: 17%
Barometer: 29.73 inHg , 1006.8 hPa
Clouds: Few Clouds
Visibility: 10 miles , 16 km
Cloud details: Few Clouds 10000 ft
Few Clouds 20000 ft
2018/08/20 01:49 KGEU 200149Z 20009KT 10SM FEW100 FEW200 42/12 A2973 RMK LAST
 
KFFZ - Mesa/Falcon Field, Arizona, USA
Distance from station: SE 21mi, 33km
Updated: Sun 19 Aug 2018 1947 MST
NOT Current
Partly cloudy
Partly cloudy
 Wind from WSW
Wind: WSW 6 mph , 9 km/h
Temperature: 100°F , 38°C
Dew Point: 59°F , 15°C
Humidity: 25%
Barometer: 29.77 inHg , 1008.1 hPa
Clouds: Partly cloudy
Visibility: 40 miles , 64 km
Cloud details: Few Clouds 10000 ft
Partly cloudy 20000 ft
2018/08/20 02:47 KFFZ 200247Z 25005KT 40SM FEW100 SCT200 38/15 A2977
KLUF - Luke AFB/Glendale, Arizona, USA
Distance from station: WSW 23mi, 36km
Updated: Sun 19 Aug 2018 2358 MST
Clear
Clear
 Wind from SSW
Wind: SSW 10 mph , 17 km/h
Temperature: 97°F , 36°C
Dew Point: 61°F , 16°C
Humidity: 30%
Barometer: 29.77 inHg , 1008.1 hPa
Clouds: Clear
Visibility: 10 miles , 16 km
2018/08/20 06:58 KLUF 200658Z AUTO 21009KT 10SM CLR 36/16 A2977 RMK AO2 SLP064 T03610162 404230301 $
 
KGYR - Goodyear Municipal, Arizona, USA
Distance from station: SW 26mi, 42km
Updated: Sun 19 Aug 2018 2047 MST
NOT Current
Partly cloudy
Partly cloudy
 Wind from SSW
Wind: SSW 8 mph , 13 km/h
Temperature: 99°F , 37°C
Dew Point: 61°F , 16°C
Humidity: 29%
Barometer: 29.74 inHg , 1007.1 hPa
Clouds: Partly cloudy
Visibility: 10 miles , 16 km
Cloud details: Few Clouds 9000 ft
Few Clouds 20000 ft
Partly cloudy 25000 ft
2018/08/20 03:47 KGYR 200347Z 20007KT 10SM FEW090 FEW200 SCT250 37/16 A2974 RMK LAST
KIWA - Chandler/Mesa, Arizona, USA
Distance from station: SE 32mi, 51km
Updated: Mon 20 Aug 2018 0015 MST
Clear
Clear
 Wind from calm
Wind: Calm
Temperature: 91°F , 33°C
Dew Point: 63°F , 17°C
Humidity: 38%
Barometer: 29.83 inHg , 1010.2 hPa
Clouds: Clear
Visibility: 10 miles , 16 km
2018/08/20 07:15 KIWA 200715Z AUTO 00000KT 10SM CLR 33/17 A2983 RMK AO2 T03310166
 
KBXK - Buckeye, Arizona, USA
Distance from station: WSW 42mi, 68km
Updated: Mon 20 Aug 2018 0015 MST
Clear
Clear
 Wind from calm
Wind: Calm
Temperature: 91°F , 33°C
Heat Index: 93°F , 34°C
Dew Point: 64°F , 18°C
Humidity: 41%
Barometer: 29.80 inHg , 1009.1 hPa
Clouds: Clear
Visibility: 10 miles , 16 km
2018/08/20 07:15 KBXK 200715Z AUTO 00000KT 10SM CLR 33/18 A2980 RMK AO1
KCGZ - Casa Grande, Arizona, USA
Distance from station: SSE 50mi, 81km
Updated: Sun 19 Aug 2018 2356 MST
Clear
Clear
 Wind from SW
Wind: SW 7 mph , 11 km/h
Temperature: 90°F , 32°C
Heat Index: 91°F , 33°C
Dew Point: 63°F , 17°C
Humidity: 41%
Barometer: 29.83 inHg , 1010.2 hPa
Clouds: Clear
Visibility: 10 miles , 16 km
2018/08/20 06:56 KCGZ 200656Z AUTO 23006KT 10SM CLR 32/17 A2983 RMK AO2 SLP083 T03220172 404060283 PNO $
 
KPAN - Payson, Arizona, USA
Distance from station: NE 57mi, 91km
Updated: Mon 20 Aug 2018 0035 MST
Clear
Clear
 Wind from calm
Wind: Calm
Temperature: 72°F , 22°C
Dew Point: 54°F , 12°C
Humidity: 53%
Barometer: 30.15 inHg , 1021 hPa
Clouds: Clear
Visibility: 10 miles , 16 km
2018/08/20 07:35 KPAN 200735Z AUTO 00000KT 10SM CLR 22/12 A3015 RMK AO2
KGBN - Gila Bend (aaf), Arizona, USA
Distance from station: SW 68mi, 109km
Updated: Thu 20 Jul 2017 0757 MST
NOT Current
Partly cloudy
Partly cloudy
 Wind from calm
Wind: Calm
Temperature: 86°F , 30°C
Heat Index: 89°F , 32°C
Dew Point: 68°F , 20°C
Humidity: 55%
Barometer: 29.97 inHg , 1014.9 hPa
Clouds: Partly cloudy
Visibility: 10 miles , 16 km
Cloud details: Few Clouds 10000 ft
Partly cloudy 15000 ft
2017/07/20 14:57 KGBN 201457Z 00000KT 10SM FEW100 SCT150 30/20 A2997 RMK A02 NO SLP
 
KPRC - Prescott, Arizona, USA
Distance from station: NNW 73mi, 118km
Updated: Sun 19 Aug 2018 2353 MST
Clear
Clear
 Wind from S
Wind: S 3 mph , 6 km/h
Temperature: 73°F , 23°C
Dew Point: 54°F , 12°C
Humidity: 50%
Barometer: 30.14 inHg , 1020.7 hPa
Clouds: Clear
Visibility: 10 miles , 16 km
2018/08/20 06:53 KPRC 200653Z 17003KT 10SM CLR 23/12 A3014 RMK AO2 SLP109 T02330122 403280167
KSEZ - Sedona, Arizona, USA
Distance from station: N 84mi, 135km
Updated: Wed 01 Aug 2018 1655 MST
NOT Current
Heavy thunderstorm, Rain, Mostly cloudy
Heavy thunderstorm, Rain, Mostly cloudy
 Wind from NE
Wind: NE 9 mph , 15 km/h
Temperature: 79°F , 26°C
Dew Point: 59°F , 15°C
Humidity: 51%
Barometer: 30.16 inHg , 1021.3 hPa
Summary: Heavy thunderstorm, Rain
Clouds: Mostly cloudy
Visibility: 3 miles , 5 km
Cloud details: Partly cloudy 3100 ft
Partly cloudy 5000 ft
Mostly cloudy 7500 ft
2018/08/01 23:55 KSEZ 012355Z AUTO 05008KT 3SM +TSRA SCT031 SCT050 BKN075 26/15 A3016 RMK AO2 LTG DSNT ALQS P0011
 
KFLG - Flagstaff, Arizona, USA
Distance from station: N 105mi, 168km
Updated: Sun 19 Aug 2018 2357 MST
Clear
Clear
 Wind from calm
Wind: Calm
Temperature: 57°F , 14°C
Dew Point: 50°F , 10°C
Humidity: 77%
Barometer: 30.30 inHg , 1026.1 hPa
Clouds: Clear
Visibility: 10 miles , 16 km
2018/08/20 06:57 KFLG 200657Z AUTO 00000KT 10SM CLR 14/10 A3030 RMK AO2 SLP147 T01390100 402940106 $
KRYN - Tucson/Ryan Field, Arizona, USA
Distance from station: SSE 114mi, 184km
Updated: Sun 19 Aug 2018 1745 MST
NOT Current
Clear
Clear
 Wind from NW
Wind: NW 13 mph , 20 km/h
Temperature: 100°F , 38°C
Dew Point: 61°F , 16°C
Humidity: 27%
Barometer: 29.87 inHg , 1011.5 hPa
Clouds: Clear
Visibility: 10 miles , 16 km
2018/08/20 00:45 KRYN 200045Z 31011KT 10SM CLR 38/16 A2987
 
KCMR - Williams Clark, Arizona, USA
Distance from station: N 115mi, 185km
Updated: Mon 20 Aug 2018 0035 MST
Clear
Clear
 Wind from S
Wind: S 6 mph , 9 km/h
Temperature: 63°F , 17°C
Dew Point: 50°F , 10°C
Humidity: 64%
Barometer: 30.26 inHg , 1024.7 hPa
Clouds: Clear
Visibility: 10 miles , 16 km
2018/08/20 07:35 KCMR 200735Z AUTO 17005KT 10SM CLR 17/10 A3026 RMK AO2
KINW - Winslow, Arizona, USA
Distance from station: NE 121mi, 194km
Updated: Sun 19 Aug 2018 2356 MST
Clear
Clear
 Wind from SE
Wind: SE 9 mph , 15 km/h
Temperature: 72°F , 22°C
Dew Point: 46°F , 8°C
Humidity: 41%
Barometer: 30.12 inHg , 1020 hPa
Clouds: Clear
Visibility: 10 miles , 16 km
2018/08/20 06:56 KINW 200656Z AUTO 14008KT 10SM CLR 22/08 A3012 RMK AO2 SLP114 T02170083 403610144
 
KTUS - Tucson, Arizona, USA
Distance from station: SSE 121mi, 195km
Updated: Sun 19 Aug 2018 2353 MST
Clear
Clear
 Wind from SW
Wind: SW 3 mph , 6 km/h
Temperature: 88°F , 31°C
Heat Index: 89°F , 32°C
Dew Point: 63°F , 17°C
Humidity: 43%
Barometer: 29.96 inHg , 1014.6 hPa
Clouds: Clear
Visibility: 10 miles , 16 km
2018/08/20 06:53 KTUS 200653Z 22003KT 10SM CLR 31/17 A2996 RMK AO2 SLP089 T03060167 403830244
KDMA - Davis AFB/Tucson, Arizona, USA
Distance from station: SE 122mi, 196km
Updated: Sun 19 Aug 2018 2358 MST
Clear
Clear
 Wind from SW
Wind: SW 6 mph , 9 km/h
Temperature: 84°F , 29°C
Heat Index: 85°F , 29°C
Dew Point: 63°F , 17°C
Humidity: 48%
Barometer: 29.95 inHg , 1014.2 hPa
Clouds: Clear
Visibility: 10 miles , 16 km
2018/08/20 06:58 KDMA 200658Z AUTO 22005KT 10SM CLR 29/17 A2995 RMK AO2 SLP092 T02940172 403860236 $
 
KSOW - Show Low Municipal, Arizona, USA
Distance from station: ENE 123mi, 198km
Updated: Mon 20 Aug 2018 0035 MST
Clear
Clear
 Wind from S
Wind: S 7 mph , 11 km/h
Temperature: 59°F , 15°C
Dew Point: 36°F , 2°C
Humidity: 42%
Barometer: 30.26 inHg , 1024.7 hPa
Clouds: Clear
Visibility: 10 miles , 16 km
2018/08/20 07:35 KSOW 200735Z AUTO 19006KT 10SM CLR 15/02 A3026 RMK AO2
KSAD - Safford, Arizona, USA
Distance from station: ESE 148mi, 238km
Updated: Sun 19 Aug 2018 2351 MST
Clear
Clear
 Wind from NW
Wind: NW 12 mph , 19 km/h
Temperature: 86°F , 30°C
Dew Point: 57°F , 14°C
Humidity: 38%
Barometer: 29.94 inHg , 1013.9 hPa
Clouds: Clear
Visibility: 10 miles , 16 km
2018/08/20 06:51 KSAD 200651Z AUTO 31010KT 10SM CLR 30/14 A2994 RMK AO2 SLP072 T03000144 404060244